Time;durP1;ratioP1;P1;durP2;ratioP2;P2;SDS_P1;SDS_P2;PMS_P1;PMS_P2;Temp;Humidity;BMP_temperature;BMP_pressure;BME280_temperature;BME280_humidity;BME280_pressure;Samples;Min_cycle;Max_cycle;Signal;HPM_P1;HPM_P2
2024/04/08 00:01:45;;;;;;;6.63;5.70;;;17.00;99.90;;;;;;6317521;22;20424;-89
2024/04/08 00:04:11;;;;;;;6.73;6.03;;;16.90;53.90;;;;;;6316630;22;20182;-89
2024/04/08 00:06:38;;;;;;;8.67;5.53;;;17.00;49.50;;;;;;6311861;22;20405;-89
2024/04/08 00:09:05;;;;;;;5.60;5.10;;;17.00;89.50;;;;;;6310579;22;20435;-89
2024/04/08 00:11:36;;;;;;;11.07;6.37;;;16.90;79.70;;;;;;6310397;22;20466;-88
2024/04/08 00:14:02;;;;;;;9.90;7.90;;;17.00;99.90;;;;;;6317746;22;20380;-88
2024/04/08 00:16:30;;;;;;;10.77;7.27;;;17.00;90.20;;;;;;6336447;22;20409;-88
2024/04/08 00:18:56;;;;;;;6.90;5.70;;;17.00;86.70;;;;;;6324514;22;20410;-88
2024/04/08 00:21:23;;;;;;;6.33;5.73;;;16.90;17.50;;;;;;6314580;22;20424;-88
2024/04/08 00:23:49;;;;;;;12.20;6.57;;;16.90;48.40;;;;;;6315917;22;20392;-88
2024/04/08 00:26:16;;;;;;;9.10;5.20;;;16.90;56.20;;;;;;6317833;22;20471;-88
2024/04/08 00:28:43;;;;;;;8.73;5.10;;;16.80;99.90;;;;;;6317530;22;20396;-88
2024/04/08 00:31:10;;;;;;;5.97;5.43;;;16.80;99.90;;;;;;6316843;22;20430;-88
2024/04/08 00:33:37;;;;;;;8.53;7.10;;;16.70;99.90;;;;;;6317076;22;20414;-87
2024/04/08 00:36:05;;;;;;;8.10;5.23;;;16.70;74.50;;;;;;6311488;22;20419;-88
2024/04/08 00:38:31;;;;;;;7.03;5.17;;;16.60;83.50;;;;;;6308574;22;20434;-88
2024/04/08 00:41:02;;;;;;;6.80;6.10;;;16.60;86.30;;;;;;6308271;22;20427;-88
2024/04/08 00:43:28;;;;;;;7.90;5.73;;;16.60;74.50;;;;;;6308944;22;20240;-88
2024/04/08 00:45:57;;;;;;;8.60;6.47;;;16.60;99.90;;;;;;6310028;22;20399;-88
2024/04/08 00:48:23;;;;;;;9.93;5.73;;;16.70;99.90;;;;;;6321177;22;20435;-88
2024/04/08 00:50:52;;;;;;;13.40;6.33;;;16.80;99.90;;;;;;6308889;22;20912;-89
2024/04/08 00:53:19;;;;;;;6.47;5.90;;;16.80;99.90;;;;;;6308904;22;20403;-88
2024/04/08 01:02:24;;;;;;;5.60;5.10;;;16.80;99.90;;;;;;6167647;23;20903;-89
2024/04/08 01:18:45;;;;;;;;;;;;;;;;;;;;;
2024/04/08 01:34:13;;;;;;;4.63;4.23;;;16.90;81.80;;;;;;6277706;22;20426;-87
2024/04/08 01:36:39;;;;;;;4.97;4.57;;;16.90;99.90;;;;;;6294097;22;20394;-86
2024/04/08 01:39:09;;;;;;;6.83;4.60;;;16.80;99.90;;;;;;6304836;22;20374;-88
2024/04/08 01:41:37;;;;;;;7.40;3.90;;;17.00;99.90;;;;;;6290938;22;20756;-87
2024/04/08 01:46:58;;;;;;;5.30;4.80;;;17.00;99.90;;;;;;6292080;22;20416;-88
2024/04/08 01:49:28;;;;;;;6.03;4.70;;;17.00;99.90;;;;;;6305349;22;20411;-86
2024/04/08 01:52:08;;;;;;;8.33;5.10;;;17.00;99.90;;;;;;6303627;22;20377;-89
2024/04/08 01:54:46;;;;;;;6.60;4.90;;;17.00;29.80;;;;;;6301627;22;20404;-88
2024/04/08 01:57:16;;;;;;;5.40;4.90;;;16.90;20.30;;;;;;6305269;22;20406;-87
2024/04/08 01:59:44;;;;;;;5.03;4.33;;;16.90;57.60;;;;;;6304480;22;20430;-88
2024/04/08 02:02:11;;;;;;;4.70;4.30;;;16.70;48.00;;;;;;6304473;22;20418;-87
2024/04/08 02:04:40;;;;;;;4.80;4.17;;;17.00;68.70;;;;;;6301874;22;20420;-89
2024/04/08 02:07:07;;;;;;;5.47;4.50;;;16.70;79.00;;;;;;6300570;22;20433;-90
2024/04/08 02:09:36;;;;;;;4.87;4.37;;;16.70;45.00;;;;;;6295249;22;20467;-91
2024/04/08 02:12:09;;;;;;;7.70;6.10;;;16.70;45.50;;;;;;6288414;22;20412;-90
2024/04/08 02:14:35;;;;;;;5.80;4.20;;;17.10;91.90;;;;;;6288195;22;20425;-90
2024/04/08 02:17:05;;;;;;;7.33;6.27;;;16.70;79.20;;;;;;6288594;22;20421;-89
2024/04/08 02:19:35;;;;;;;8.60;7.00;;;16.60;99.90;;;;;;6301723;22;20408;-89
2024/04/08 02:22:06;;;;;;;6.77;6.10;;;16.60;99.90;;;;;;6305809;22;20401;-89
2024/04/08 02:24:35;;;;;;;11.00;6.60;;;16.70;99.90;;;;;;6295124;22;20504;-88
2024/04/08 02:27:08;;;;;;;9.20;5.43;;;16.90;99.90;;;;;;6285564;22;20439;-89
2024/04/08 02:29:35;;;;;;;6.07;5.40;;;16.50;99.90;;;;;;6289387;22;20791;-89
2024/04/08 02:32:02;;;;;;;5.80;5.30;;;16.50;99.90;;;;;;6286865;22;20412;-89
2024/04/08 02:34:28;;;;;;;9.37;5.40;;;16.40;99.90;;;;;;6286225;22;20772;-88
2024/04/08 02:36:55;;;;;;;10.30;5.37;;;16.40;99.90;;;;;;6287747;22;20412;-89
2024/04/08 02:39:22;;;;;;;6.53;5.57;;;16.40;99.90;;;;;;6287953;22;20444;-89
2024/04/08 02:41:49;;;;;;;6.80;6.17;;;16.40;99.90;;;;;;6284847;22;20415;-89
2024/04/08 02:44:15;;;;;;;6.77;5.77;;;16.40;99.90;;;;;;6283745;22;20419;-88
2024/04/08 02:46:46;;;;;;;10.53;7.17;;;16.50;99.90;;;;;;6286113;22;20391;-89
2024/04/08 02:49:12;;;;;;;7.40;6.10;;;15.80;99.90;;;;;;6306500;22;20387;-88
2024/04/08 02:51:41;;;;;;;9.07;6.30;;;16.40;99.90;;;;;;6306975;22;20385;-89
2024/04/08 02:54:12;;;;;;;9.80;6.10;;;16.30;99.90;;;;;;6293940;22;20407;-87
2024/04/08 02:56:48;;;;;;;5.80;5.20;;;16.30;99.90;;;;;;6292654;22;20411;-89
2024/04/08 02:59:15;;;;;;;6.07;5.47;;;16.20;99.90;;;;;;6287914;22;20731;-88
2024/04/08 03:01:42;;;;;;;8.33;5.80;;;15.90;99.90;;;;;;6290943;22;20932;-88
2024/04/08 03:04:08;;;;;;;8.03;6.13;;;16.10;99.90;;;;;;6284625;22;20393;-88
2024/04/08 03:06:36;;;;;;;6.03;5.40;;;16.10;99.90;;;;;;6285119;22;20415;-87
2024/04/08 03:09:04;;;;;;;8.90;5.80;;;16.10;99.90;;;;;;6287571;22;20957;-89
2024/04/08 03:14:44;;;;;;;9.93;6.17;;;16.10;99.90;;;;;;6286903;22;20386;-88
2024/04/08 03:17:14;;;;;;;8.23;5.57;;;16.10;99.90;;;;;;6288102;22;20396;-89
2024/04/08 03:19:43;;;;;;;8.07;5.10;;;16.00;99.90;;;;;;6287882;22;20392;-88
2024/04/08 03:22:09;;;;;;;9.70;6.17;;;16.10;99.90;;;;;;6290284;22;20461;-88
2024/04/08 03:24:36;;;;;;;10.43;6.40;;;15.90;99.90;;;;;;6291749;22;20430;-88
2024/04/08 03:27:04;;;;;;;8.50;5.83;;;15.90;99.90;;;;;;6300852;22;20418;-88
2024/04/08 03:29:31;;;;;;;8.17;6.03;;;16.30;99.90;;;;;;6306043;22;20396;-87
2024/04/08 03:32:03;;;;;;;6.47;5.33;;;16.00;99.90;;;;;;6305788;22;20409;-86
2024/04/08 03:34:38;;;;;;;7.60;5.87;;;16.10;1.00;;;;;;6305437;22;20428;-89
2024/04/08 03:37:11;;;;;;;6.80;6.10;;;16.10;99.90;;;;;;6306306;22;20369;-86
2024/04/08 03:39:41;;;;;;;6.87;6.27;;;16.60;99.90;;;;;;6304304;22;20456;-89
2024/04/08 03:44:04;;;;;;;7.00;5.60;;;16.00;99.90;;;;;;5600598;25;20563;-88
2024/04/08 03:46:37;;;;;;;7.93;5.37;;;16.00;99.90;;;;;;5564300;25;20509;-89
2024/04/08 03:49:12;;;;;;;6.20;5.60;;;16.00;1.00;;;;;;5564101;25;20527;-89
2024/04/08 03:51:40;;;;;;;6.97;6.10;;;15.90;1.00;;;;;;5563517;25;20473;-89
2024/04/08 03:54:08;;;;;;;6.90;5.57;;;16.00;99.90;;;;;;5567837;25;20450;-87
2024/04/08 03:56:34;;;;;;;6.97;5.73;;;16.10;99.90;;;;;;5487107;21;20553;-86
2024/04/08 03:59:06;;;;;;;12.37;6.43;;;;;;;;;;5454501;26;20446;-86
2024/04/08 04:01:32;;;;;;;6.40;5.63;;;16.20;99.90;;;;;;5456557;26;20445;-86
2024/04/08 04:04:01;;;;;;;6.50;5.30;;;16.30;99.90;;;;;;5447978;26;20509;-87
2024/04/08 04:06:28;;;;;;;8.33;6.07;;;16.20;99.90;;;;;;5443275;26;20255;-87
2024/04/08 04:08:56;;;;;;;6.63;5.80;;;16.20;99.90;;;;;;5445681;26;20449;-88
2024/04/08 04:11:25;;;;;;;5.50;5.10;;;16.20;99.90;;;;;;5454495;26;20488;-88
2024/04/08 04:13:54;;;;;;;11.03;5.90;;;16.20;99.90;;;;;;5453308;26;20811;-88
2024/04/08 04:16:23;;;;;;;7.87;5.87;;;16.30;99.90;;;;;;5445755;26;20816;-87
2024/04/08 04:18:54;;;;;;;10.37;6.60;;;16.10;99.90;;;;;;5446394;26;20480;-87
2024/04/08 04:21:20;;;;;;;7.50;6.17;;;16.30;99.90;;;;;;5445163;26;20547;-87
2024/04/08 04:23:49;;;;;;;9.63;5.43;;;16.10;99.90;;;;;;5443589;26;20454;-86
2024/04/08 04:26:15;;;;;;;11.33;5.80;;;16.10;99.90;;;;;;5442551;26;20462;-86
2024/04/08 04:28:44;;;;;;;5.80;5.30;;;16.30;99.90;;;;;;5440634;26;20458;-87
2024/04/08 04:31:10;;;;;;;10.27;5.23;;;16.30;99.90;;;;;;5441209;26;20795;-87
2024/04/08 04:33:41;;;;;;;6.63;6.00;;;16.30;99.90;;;;;;5444632;26;20430;-87
2024/04/08 04:36:07;;;;;;;8.20;6.00;;;16.30;99.90;;;;;;5450474;26;20434;-88
2024/04/08 04:38:43;;;;;;;6.40;5.80;;;16.20;99.90;;;;;;5440039;26;20505;-88
2024/04/08 04:42:01;;;;;;;12.90;6.07;;;16.20;99.90;;;;;;5439899;26;20468;-91
2024/04/08 05:07:47;;;;;;;7.67;5.80;;;16.60;99.90;;;;;;5324297;21;20502;-92
2024/04/08 05:10:42;;;;;;;9.50;5.20;;;16.40;99.90;;;;;;5320216;26;20531;-91
2024/04/08 05:13:13;;;;;;;6.70;5.20;;;14.90;99.90;;;;;;5318619;27;20454;-90
2024/04/08 05:15:40;;;;;;;8.13;5.43;;;16.00;99.90;;;;;;5318557;26;20466;-89
2024/04/08 05:18:15;;;;;;;10.90;5.53;;;15.80;99.90;;;;;;5341383;21;20514;-88
2024/04/08 05:20:49;;;;;;;10.00;5.73;;;16.10;99.90;;;;;;5319454;27;20446;-89
2024/04/08 05:23:30;;;;;;;6.60;5.97;;;16.00;99.90;;;;;;5319491;27;20462;-89
2024/04/08 05:25:57;;;;;;;8.73;5.90;;;16.10;99.90;;;;;;5320781;27;20462;-89
2024/04/08 05:28:31;;;;;;;9.33;5.70;;;16.20;99.90;;;;;;5322606;26;20541;-89
2024/04/08 05:30:57;;;;;;;5.43;4.97;;;16.10;99.90;;;;;;5327198;27;20434;-89
2024/04/08 05:33:26;;;;;;;6.87;5.60;;;16.00;99.90;;;;;;5328878;26;20506;-88
2024/04/08 05:35:52;;;;;;;7.47;5.67;;;;;;;;;;5327507;26;20505;-88
2024/04/08 05:38:46;;;;;;;7.70;5.57;;;16.00;99.90;;;;;;5320459;26;20554;-89
2024/04/08 05:41:29;;;;;;;8.97;5.30;;;16.10;99.90;;;;;;5319839;27;20514;-89
2024/04/08 05:44:21;;;;;;;6.60;6.00;;;;;;;;;;5323951;27;20503;-89
2024/04/08 05:50:32;;;;;;;5.97;5.40;;;16.20;99.90;;;;;;5339795;26;20452;-89
2024/04/08 05:53:25;;;;;;;8.40;5.60;;;16.00;99.90;;;;;;5321073;26;20506;-88
2024/04/08 05:55:54;;;;;;;7.73;6.30;;;16.30;99.90;;;;;;5323004;26;20466;-89
2024/04/08 05:58:38;;;;;;;7.53;6.27;;;16.40;99.90;;;;;;5326012;26;20494;-89
2024/04/08 06:01:04;;;;;;;9.20;5.67;;;16.40;99.90;;;;;;5325358;27;20458;-88
2024/04/08 06:03:50;;;;;;;9.60;5.70;;;16.50;99.90;;;;;;5320474;26;20450;-88
2024/04/08 06:06:34;;;;;;;8.40;5.33;;;16.50;99.90;;;;;;5318005;27;20506;-88
2024/04/08 06:09:29;;;;;;;9.30;6.03;;;16.40;99.90;;;;;;5327882;26;20471;-88
2024/04/08 06:12:03;;;;;;;6.53;5.67;;;16.40;99.90;;;;;;5323372;27;20451;-87
2024/04/08 06:14:48;;;;;;;8.17;6.20;;;16.80;99.90;;;;;;5337015;26;20499;-89
2024/04/08 06:17:23;;;;;;;6.90;6.00;;;17.00;99.90;;;;;;5336762;26;20470;-88
2024/04/08 06:19:57;;;;;;;7.40;5.77;;;16.60;99.90;;;;;;5324861;26;20482;-89
2024/04/08 06:26:20;;;;;;;12.17;6.07;;;16.60;99.90;;;;;;5314742;27;20442;-90
2024/04/08 06:29:04;;;;;;;7.53;6.33;;;16.90;99.90;;;;;;5319112;26;20515;-90
2024/04/08 06:31:33;;;;;;;7.13;5.70;;;16.90;99.90;;;;;;5318339;27;20894;-89
2024/04/08 06:34:12;;;;;;;10.10;6.43;;;17.00;99.90;;;;;;5319197;26;20567;-89
2024/04/08 06:39:53;;;;;;;8.40;6.07;;;17.10;99.90;;;;;;5282364;26;20503;-88
2024/04/08 06:42:55;;;;;;;8.53;5.83;;;;;;;;;;5318154;27;20455;-89
2024/04/08 06:45:53;;;;;;;7.17;6.00;;;17.30;99.90;;;;;;5317431;27;20455;-89
2024/04/08 06:48:33;;;;;;;11.07;6.40;;;;;;;;;;5317598;26;20873;-89
2024/04/08 06:51:36;;;;;;;12.53;6.10;;;17.40;99.90;;;;;;5317791;27;20467;-88
2024/04/08 06:54:46;;;;;;;;;;;;;;;;;;;;;
2024/04/08 06:57:53;;;;;;;8.37;6.33;;;17.70;99.90;;;;;;5327929;26;20487;-89
2024/04/08 07:00:24;;;;;;;7.13;6.40;;;18.60;99.90;;;;;;5296213;27;20455;-88
2024/04/08 07:02:56;;;;;;;11.47;7.13;;;17.90;99.90;;;;;;5318702;27;20494;-89
2024/04/08 07:05:22;;;;;;;8.07;6.40;;;18.00;99.90;;;;;;5318373;27;20839;-88
2024/04/08 07:11:22;;;;;;;7.93;6.37;;;17.80;99.90;;;;;;5282077;27;20905;-88
2024/04/08 07:14:10;;;;;;;12.30;6.80;;;17.80;99.90;;;;;;5317541;27;20518;-89
2024/04/08 07:19:28;;;;;;;7.67;6.90;;;;;;;;;;5315187;26;20468;-88
2024/04/08 07:22:13;;;;;;;8.23;6.20;;;17.90;99.90;;;;;;5318746;27;20965;-88
2024/04/08 07:24:44;;;;;;;8.30;6.37;;;17.80;99.90;;;;;;5331488;27;20543;-88
2024/04/08 07:27:23;;;;;;;8.40;6.10;;;17.90;99.90;;;;;;5334622;26;20520;-88
2024/04/08 07:33:20;;;;;;;8.87;6.80;;;18.10;99.90;;;;;;5317985;26;20801;-89
2024/04/08 07:35:51;;;;;;;7.37;5.50;;;;;;;;;;5317205;27;20891;-88
2024/04/08 07:38:37;;;;;;;7.03;5.77;;;18.10;99.90;;;;;;5320655;26;20546;-88
2024/04/08 07:41:06;;;;;;;6.83;6.33;;;18.10;99.90;;;;;;5334436;27;20443;-88
2024/04/08 07:43:43;;;;;;;6.10;5.50;;;17.80;99.90;;;;;;5335442;26;20493;-88
2024/04/08 07:46:09;;;;;;;12.83;6.00;;;18.10;99.90;;;;;;5329716;26;20504;-88
2024/04/08 08:02:45;;;;;;;9.50;5.27;;;18.30;99.90;;;;;;5250224;27;20542;-90
2024/04/08 08:05:32;;;;;;;7.70;6.13;;;18.90;99.90;;;;;;5318354;26;20436;-90
2024/04/08 08:08:02;;;;;;;11.40;5.70;;;18.40;99.90;;;;;;5317336;26;20531;-90
2024/04/08 08:13:49;;;;;;;6.80;6.10;;;18.40;99.90;;;;;;5294302;27;20457;-88
2024/04/08 08:16:43;;;;;;;;;;;;;;;;;;;;;
2024/04/08 08:19:19;;;;;;;8.33;5.00;;;18.50;99.90;;;;;;5317176;26;20515;-88
2024/04/08 08:22:08;;;;;;;6.90;5.67;;;18.50;99.90;;;;;;5317556;27;20503;-90
2024/04/08 08:34:43;;;;;;;11.83;6.00;;;;;;;;;;5167086;27;20470;-89
2024/04/08 08:50:10;;;;;;;6.10;5.43;;;;;;;;;;5199312;27;20471;-89
2024/04/08 08:56:06;;;;;;;10.40;5.70;;;;;;;;;;5075675;27;20481;-89
2024/04/08 08:58:37;;;;;;;8.00;5.50;;;;;;;;;;5297384;26;20521;-90
2024/04/08 09:01:19;;;;;;;12.70;5.00;;;;;;;;;;5328608;26;20466;-91
2024/04/08 09:07:00;;;;;;;7.00;6.00;;;19.20;99.90;;;;;;5377584;21;20498;-89
2024/04/08 09:09:27;;;;;;;10.90;5.60;;;19.50;99.90;;;;;;5324629;26;20454;-88
2024/04/08 09:15:53;;;;;;;6.43;5.30;;;20.10;99.90;;;;;;5161326;26;20493;-88
2024/04/08 09:19:03;;;;;;;10.70;5.20;;;20.10;90.10;;;;;;5309502;21;20502;-88
2024/04/08 09:21:32;;;;;;;6.93;5.53;;;20.30;27.40;;;;;;5336065;26;20463;-89
2024/04/08 09:24:54;;;;;;;6.87;5.57;;;19.30;45.60;;;;;;5334807;26;20450;-88
2024/04/08 09:33:45;;;;;;;6.43;4.67;;;20.80;99.90;;;;;;5425217;21;20599;-91
2024/04/08 09:36:17;;;;;;;8.37;4.50;;;20.60;99.90;;;;;;5337563;26;20520;-91
2024/04/08 09:39:03;;;;;;;7.83;5.60;;;20.60;99.90;;;;;;5333254;26;20442;-91
2024/04/08 09:41:33;;;;;;;8.60;5.10;;;20.80;99.90;;;;;;5337502;26;20545;-91
2024/04/08 09:44:10;;;;;;;10.37;7.80;;;20.80;99.90;;;;;;5337263;26;20459;-92
2024/04/08 09:46:39;;;;;;;9.10;5.50;;;20.80;99.90;;;;;;5337587;26;20458;-92
2024/04/08 09:49:11;;;;;;;9.57;5.10;;;20.70;99.90;;;;;;5337554;26;20491;-91
2024/04/08 09:51:40;;;;;;;8.10;4.83;;;20.80;99.90;;;;;;5337419;26;20530;-91
2024/04/08 09:54:10;;;;;;;6.43;5.10;;;20.80;99.90;;;;;;5336819;26;20458;-91
2024/04/08 09:56:38;;;;;;;5.90;5.30;;;21.00;99.90;;;;;;5337306;26;20443;-90
2024/04/08 09:59:21;;;;;;;7.73;4.97;;;20.90;1.00;;;;;;5336999;26;20503;-91
2024/04/08 10:01:47;;;;;;;9.00;5.80;;;21.00;1.00;;;;;;5337143;26;20520;-91
2024/04/08 10:04:21;;;;;;;7.40;5.47;;;21.10;1.00;;;;;;5336599;26;20459;-91
2024/04/08 10:06:49;;;;;;;10.60;5.33;;;21.20;1.00;;;;;;5328863;27;20450;-90
2024/04/08 10:09:20;;;;;;;9.37;5.73;;;21.30;1.00;;;;;;5336264;26;20458;-91
2024/04/08 10:11:47;;;;;;;6.60;5.10;;;21.60;1.00;;;;;;5330884;27;20451;-90
2024/04/08 10:14:23;;;;;;;7.80;4.77;;;21.60;1.00;;;;;;5322995;26;20556;-90
2024/04/08 10:16:49;;;;;;;8.80;4.97;;;21.60;1.00;;;;;;5337403;26;20506;-90
2024/04/08 10:19:21;;;;;;;6.07;4.90;;;21.60;1.00;;;;;;5336583;26;20551;-89
2024/04/08 10:21:52;;;;;;;10.47;5.87;;;22.10;21.10;;;;;;5335766;26;20447;-89
2024/04/08 10:24:41;;;;;;;5.63;5.13;;;21.90;1.00;;;;;;5329558;26;20483;-93
2024/04/08 10:27:10;;;;;;;9.80;5.30;;;21.90;29.40;;;;;;5322875;27;20471;-90
2024/04/08 10:29:43;;;;;;;5.63;5.07;;;22.10;1.00;;;;;;5322432;26;20515;-88
2024/04/08 10:32:11;;;;;;;7.17;5.33;;;22.20;47.30;;;;;;5323613;26;20512;-89
2024/04/08 10:34:41;;;;;;;6.53;5.63;;;22.20;1.00;;;;;;5324080;27;20517;-88
2024/04/08 10:37:07;;;;;;;9.37;5.17;;;22.30;8.30;;;;;;5320028;26;20449;-88
2024/04/08 10:39:35;;;;;;;9.47;5.47;;;22.40;50.00;;;;;;5319808;26;20451;-88
2024/04/08 10:42:13;;;;;;;6.80;5.03;;;22.50;26.30;;;;;;5318510;26;20275;-88
2024/04/08 10:44:44;;;;;;;6.27;4.43;;;22.60;4.50;;;;;;5319934;27;20454;-88
2024/04/08 10:47:10;;;;;;;6.93;4.33;;;22.70;99.90;;;;;;5320826;27;20558;-88
2024/04/08 10:49:39;;;;;;;8.90;6.27;;;22.70;1.00;;;;;;5318899;26;20459;-88
2024/04/08 10:52:05;;;;;;;13.83;6.20;;;22.80;1.00;;;;;;5318542;26;20462;-87
2024/04/08 10:54:33;;;;;;;7.93;6.40;;;22.90;72.80;;;;;;5320861;27;20887;-87
2024/04/08 10:56:59;;;;;;;12.63;7.03;;;23.00;64.10;;;;;;5319848;26;20543;-88
2024/04/08 10:59:28;;;;;;;14.03;6.07;;;22.80;71.50;;;;;;5318759;27;20478;-88
2024/04/08 11:01:58;;;;;;;8.73;5.73;;;22.80;77.80;;;;;;5319958;26;20504;-88
2024/04/08 11:04:27;;;;;;;6.60;4.60;;;22.80;49.20;;;;;;5334514;26;20463;-87
2024/04/08 11:06:53;;;;;;;5.60;3.90;;;22.80;25.50;;;;;;5334931;26;20516;-88
2024/04/08 11:09:22;;;;;;;15.73;4.90;;;22.90;39.50;;;;;;5333284;26;20459;-88
2024/04/08 11:11:49;;;;;;;5.57;5.00;;;23.00;61.50;;;;;;5317804;26;20478;-88
2024/04/08 11:14:18;;;;;;;6.63;4.70;;;23.10;32.40;;;;;;5316519;26;20883;-88
2024/04/08 11:16:44;;;;;;;6.60;5.13;;;23.10;45.60;;;;;;5317104;26;20455;-88
2024/04/08 11:19:15;;;;;;;5.73;4.53;;;23.30;99.90;;;;;;5317169;27;20455;-88
2024/04/08 11:21:41;;;;;;;8.07;5.10;;;23.30;1.00;;;;;;5318082;27;21067;-88
2024/04/08 11:24:13;;;;;;;9.33;4.70;;;23.40;1.00;;;;;;5317166;26;20480;-87
2024/04/08 11:26:39;;;;;;;11.70;4.80;;;23.50;1.00;;;;;;5318502;27;20460;-88
2024/04/08 11:29:10;;;;;;;8.00;3.80;;;23.40;1.00;;;;;;5319449;26;20565;-88
2024/04/08 11:31:37;;;;;;;6.57;4.80;;;23.50;1.00;;;;;;5334623;26;20209;-88
2024/04/08 11:34:06;;;;;;;14.07;6.03;;;23.50;1.00;;;;;;5317617;26;20583;-89
2024/04/08 11:36:37;;;;;;;6.40;4.93;;;23.40;1.00;;;;;;5318578;27;20460;-88
2024/04/08 11:39:03;;;;;;;7.90;4.40;;;23.30;1.00;;;;;;5318962;27;20457;-88
2024/04/08 11:41:32;;;;;;;7.63;4.20;;;23.60;1.00;;;;;;5319471;26;20510;-88
2024/04/08 11:43:58;;;;;;;6.90;6.13;;;23.70;1.00;;;;;;5319537;26;21052;-87
2024/04/08 11:46:26;;;;;;;6.90;4.50;;;23.70;1.00;;;;;;5321462;26;20465;-88
2024/04/08 11:48:52;;;;;;;7.40;5.27;;;23.80;1.00;;;;;;5322553;26;20509;-88
2024/04/08 11:51:21;;;;;;;10.07;4.90;;;23.90;1.00;;;;;;5319528;27;20456;-88
2024/04/08 11:53:50;;;;;;;8.70;4.63;;;23.90;1.00;;;;;;5320205;26;20472;-88
2024/04/08 11:56:19;;;;;;;7.23;4.10;;;23.90;1.00;;;;;;5333094;26;20542;-87
2024/04/08 11:58:45;;;;;;;8.83;4.67;;;24.00;1.00;;;;;;5335697;26;20485;-87
2024/04/08 12:01:14;;;;;;;11.03;4.43;;;24.10;1.00;;;;;;5335151;26;20460;-87
2024/04/08 12:03:40;;;;;;;5.77;3.90;;;24.10;1.00;;;;;;5327991;26;20473;-88
2024/04/08 12:06:10;;;;;;;6.73;5.23;;;24.00;1.00;;;;;;5326924;26;20532;-88
2024/04/08 12:08:36;;;;;;;9.27;4.37;;;24.00;1.00;;;;;;5326244;27;20521;-88
2024/04/08 12:11:07;;;;;;;10.97;4.70;;;24.20;1.00;;;;;;5327036;26;20460;-88
2024/04/08 12:13:33;;;;;;;8.10;4.63;;;24.30;1.00;;;;;;5327595;26;20462;-87
2024/04/08 12:16:02;;;;;;;6.60;4.23;;;24.20;1.00;;;;;;5326777;26;20507;-87
2024/04/08 12:18:28;;;;;;;7.77;4.20;;;24.50;1.00;;;;;;5332374;26;20449;-87
2024/04/08 12:20:56;;;;;;;7.40;4.80;;;24.40;1.00;;;;;;5338476;26;20465;-87
2024/04/08 12:23:22;;;;;;;9.77;4.67;;;24.30;1.00;;;;;;5327087;26;20460;-87
2024/04/08 12:25:51;;;;;;;6.93;4.47;;;24.40;1.00;;;;;;5324627;27;20512;-87
2024/04/08 12:28:20;;;;;;;8.13;4.93;;;24.50;1.00;;;;;;5328999;26;20454;-87
2024/04/08 12:30:49;;;;;;;7.20;4.13;;;24.30;1.00;;;;;;5325188;26;20461;-87
2024/04/08 12:33:15;;;;;;;9.07;4.43;;;24.20;1.00;;;;;;5326197;26;20474;-87
2024/04/08 12:35:43;;;;;;;6.50;5.10;;;24.40;1.00;;;;;;5326673;26;20519;-87
2024/04/08 12:38:10;;;;;;;11.30;6.40;;;24.50;1.00;;;;;;5326644;26;20458;-89
2024/04/08 12:40:38;;;;;;;11.90;4.90;;;24.40;1.00;;;;;;5332643;26;20464;-88
2024/04/08 12:43:05;;;;;;;13.57;4.70;;;24.50;7.00;;;;;;5337377;26;20512;-87
2024/04/08 12:45:36;;;;;;;7.13;4.13;;;24.70;38.30;;;;;;5337075;26;20495;-87
2024/04/08 12:48:02;;;;;;;11.33;5.40;;;24.70;62.60;;;;;;5337791;26;20503;-87
2024/04/08 12:50:31;;;;;;;8.57;4.30;;;24.70;18.60;;;;;;5334632;27;20568;-87
2024/04/08 12:52:57;;;;;;;7.50;5.03;;;24.50;18.70;;;;;;5324940;26;20507;-87
2024/04/08 12:55:25;;;;;;;5.60;4.40;;;25.80;1.00;;;;;;5320742;26;20462;-87
2024/04/08 12:57:51;;;;;;;8.57;4.90;;;25.20;1.00;;;;;;5321367;26;20462;-87
2024/04/08 13:00:20;;;;;;;13.37;4.93;;;25.30;1.00;;;;;;5320510;27;20462;-87
2024/04/08 13:02:48;;;;;;;10.50;4.93;;;25.40;1.00;;;;;;5321896;26;20470;-88
2024/04/08 13:05:17;;;;;;;8.23;4.50;;;25.50;1.00;;;;;;5326591;26;20502;-87
2024/04/08 13:07:43;;;;;;;12.50;4.40;;;25.30;1.00;;;;;;5319861;26;20455;-88
2024/04/08 13:10:12;;;;;;;10.53;4.97;;;25.20;1.00;;;;;;5319150;27;20842;-88
2024/04/08 13:12:38;;;;;;;18.10;4.60;;;25.30;1.00;;;;;;5320380;26;20612;-87
2024/04/08 13:15:07;;;;;;;9.53;4.30;;;25.30;1.00;;;;;;5320657;27;20551;-88
2024/04/08 13:17:33;;;;;;;10.73;4.67;;;25.30;1.00;;;;;;5319974;26;20990;-88
2024/04/08 13:20:04;;;;;;;11.87;4.90;;;25.20;1.00;;;;;;5321536;27;20573;-88
2024/04/08 13:22:30;;;;;;;7.87;4.03;;;25.30;1.00;;;;;;5335914;26;20471;-87
2024/04/08 13:24:59;;;;;;;11.37;4.10;;;25.30;1.00;;;;;;5336195;27;20458;-88
2024/04/08 13:27:28;;;;;;;12.27;4.57;;;25.30;1.00;;;;;;5334727;26;20534;-87
2024/04/08 13:29:54;;;;;;;9.87;4.03;;;25.40;1.00;;;;;;5326236;26;20462;-87
2024/04/08 13:32:23;;;;;;;10.00;3.83;;;25.10;1.00;;;;;;5324885;26;20534;-87
2024/04/08 13:34:51;;;;;;;14.30;3.87;;;;;;;;;;5322961;26;21081;-87
2024/04/08 13:37:22;;;;;;;6.13;3.50;;;25.10;1.00;;;;;;5321050;26;20601;-88
2024/04/08 13:39:48;;;;;;;9.20;4.60;;;25.40;1.00;;;;;;5322392;27;20407;-88
2024/04/08 13:42:16;;;;;;;19.07;5.07;;;25.40;1.00;;;;;;5322441;26;20546;-88
2024/04/08 13:44:46;;;;;;;11.53;5.40;;;25.50;1.00;;;;;;5321693;26;20220;-89
2024/04/08 13:47:15;;;;;;;10.10;3.43;;;25.60;1.00;;;;;;5320693;26;20510;-89
2024/04/08 13:49:41;;;;;;;7.83;4.60;;;25.50;1.00;;;;;;5325096;26;20507;-89
2024/04/08 13:52:10;;;;;;;11.40;4.07;;;25.40;1.00;;;;;;5337280;26;20454;-89
2024/04/08 13:54:40;;;;;;;7.33;3.50;;;25.50;1.00;;;;;;5337067;26;20207;-88
2024/04/08 13:57:09;;;;;;;12.57;5.07;;;25.70;1.00;;;;;;5337157;26;20466;-87
2024/04/08 13:59:35;;;;;;;10.70;5.10;;;25.80;1.00;;;;;;5334367;26;20455;-88
2024/04/08 14:02:03;;;;;;;11.30;4.97;;;26.00;1.00;;;;;;5325776;26;20538;-89
2024/04/08 14:04:29;;;;;;;12.60;4.13;;;26.10;1.00;;;;;;5327629;27;20220;-88
2024/04/08 14:06:59;;;;;;;12.13;5.10;;;26.00;1.00;;;;;;5326520;26;20946;-89
2024/04/08 14:09:25;;;;;;;17.50;4.70;;;26.00;1.00;;;;;;5325954;27;20454;-88
2024/04/08 14:11:57;;;;;;;9.63;5.17;;;25.80;1.00;;;;;;5322131;26;20540;-88
2024/04/08 14:14:22;;;;;;;13.50;5.70;;;25.80;1.00;;;;;;5321033;27;20458;-89
2024/04/08 14:16:51;;;;;;;8.00;4.00;;;25.80;1.00;;;;;;5321493;27;20623;-89
2024/04/08 14:19:17;;;;;;;13.40;4.50;;;25.80;1.00;;;;;;5320904;26;20326;-87
2024/04/08 14:21:45;;;;;;;14.30;7.73;;;25.60;1.00;;;;;;5321155;27;20522;-87
2024/04/08 14:24:11;;;;;;;9.47;5.30;;;25.60;1.00;;;;;;5321118;26;20258;-88
2024/04/08 14:26:40;;;;;;;12.93;4.53;;;25.50;1.00;;;;;;5321830;26;20466;-88
2024/04/08 14:29:09;;;;;;;8.47;3.80;;;25.60;1.00;;;;;;5322826;27;20216;-88
2024/04/08 14:31:38;;;;;;;12.10;4.90;;;25.60;1.00;;;;;;5321354;27;20470;-88
2024/04/08 14:34:03;;;;;;;12.33;4.60;;;25.60;1.00;;;;;;5321615;26;20466;-88
2024/04/08 14:36:32;;;;;;;6.13;4.50;;;25.70;1.00;;;;;;5333012;26;20498;-87
2024/04/08 14:38:58;;;;;;;12.10;3.80;;;25.70;1.00;;;;;;5336566;26;20431;-88
2024/04/08 14:41:28;;;;;;;8.30;4.27;;;25.60;1.00;;;;;;5334064;26;20509;-88
2024/04/08 14:43:54;;;;;;;14.43;5.03;;;25.60;1.00;;;;;;5322219;26;20232;-88
2024/04/08 14:46:25;;;;;;;9.00;4.93;;;25.60;1.00;;;;;;5322411;26;20459;-88
2024/04/08 14:48:51;;;;;;;10.70;5.20;;;25.60;1.00;;;;;;5323292;27;20408;-88
2024/04/08 14:51:20;;;;;;;11.17;4.80;;;25.70;1.00;;;;;;5321925;26;20539;-89
2024/04/08 14:53:46;;;;;;;13.53;5.13;;;25.60;1.00;;;;;;5321678;26;20515;-89
2024/04/08 14:56:14;;;;;;;11.20;4.77;;;25.20;1.00;;;;;;5325796;26;20454;-88
2024/04/08 14:58:42;;;;;;;11.47;5.70;;;25.30;1.00;;;;;;5326186;26;20451;-89
2024/04/08 15:01:12;;;;;;;7.60;6.50;;;25.40;1.00;;;;;;5328457;26;20474;-88
2024/04/08 15:03:41;;;;;;;8.97;5.37;;;25.30;1.00;;;;;;5329818;26;20559;-88
2024/04/08 15:06:09;;;;;;;10.53;5.20;;;25.20;1.00;;;;;;5332362;27;20497;-88
2024/04/08 15:08:36;;;;;;;8.50;5.47;;;25.30;1.00;;;;;;5325842;26;20501;-89
2024/04/08 15:11:05;;;;;;;10.40;4.73;;;24.90;1.00;;;;;;5322946;27;20511;-89
2024/04/08 15:13:31;;;;;;;11.13;5.10;;;25.30;1.00;;;;;;5321666;26;20470;-89
2024/04/08 15:15:59;;;;;;;11.73;4.43;;;25.30;1.00;;;;;;5322792;26;20507;-89
2024/04/08 15:18:26;;;;;;;15.13;5.30;;;25.20;1.00;;;;;;5326893;27;20595;-88
2024/04/08 15:20:57;;;;;;;5.57;3.33;;;25.30;1.00;;;;;;5325971;26;20459;-88
2024/04/08 15:23:23;;;;;;;7.70;4.70;;;25.30;1.00;;;;;;5328035;26;20467;-87
2024/04/08 15:25:51;;;;;;;17.63;5.80;;;25.20;1.00;;;;;;5334398;26;20458;-87
2024/04/08 15:28:18;;;;;;;9.40;4.43;;;25.20;1.00;;;;;;5335367;26;20499;-87
2024/04/08 15:30:57;;;;;;;15.03;5.90;;;25.00;1.00;;;;;;5328416;27;20447;-87
2024/04/08 15:33:23;;;;;;;9.20;5.27;;;25.00;1.00;;;;;;5329334;26;20529;-86
2024/04/08 15:36:01;;;;;;;16.33;6.00;;;24.90;1.00;;;;;;5324866;26;20458;-87
2024/04/08 15:38:27;;;;;;;13.37;6.00;;;24.70;1.00;;;;;;5323069;27;20449;-88